createdAt,value
2018-05-27T00:02:07.635Z,55.80
2018-05-27T00:04:35.107Z,55.70
2018-05-27T00:07:02.587Z,55.60
2018-05-27T00:09:30.059Z,55.80
2018-05-27T00:11:58.298Z,56.30
2018-05-27T00:14:25.792Z,56.90
2018-05-27T00:16:53.938Z,56.50
2018-05-27T00:19:21.413Z,56.60
2018-05-27T00:21:49.670Z,56.80
2018-05-27T00:24:17.134Z,56.70
2018-05-27T00:26:44.608Z,56.80
2018-05-27T00:29:12.838Z,57.20
2018-05-27T00:31:40.340Z,57.10
2018-05-27T00:34:08.578Z,57.20
2018-05-27T00:36:36.067Z,57.10
2018-05-27T00:39:03.525Z,57.10
2018-05-27T00:41:31.794Z,58.20
2018-05-27T00:43:59.332Z,57.50
2018-05-27T00:46:26.809Z,57.60
2018-05-27T00:48:54.319Z,57.50
2018-05-27T00:51:21.811Z,57.60
2018-05-27T00:54:01.114Z,57.80
2018-05-27T00:56:28.607Z,57.80
2018-05-27T00:58:56.064Z,58.00
2018-05-27T01:01:23.529Z,58.20
2018-05-27T01:03:50.986Z,58.10
2018-05-27T01:06:18.467Z,59.00
2018-05-27T01:08:45.945Z,59.40
2018-05-27T01:11:13.435Z,58.60
2018-05-27T01:13:40.900Z,58.60
2018-05-27T01:16:08.388Z,58.80
2018-05-27T01:18:36.647Z,58.80
2018-05-27T01:21:04.915Z,59.10
2018-05-27T01:23:32.442Z,59.10
2018-05-27T01:25:59.906Z,59.20
2018-05-27T01:28:27.390Z,59.20
2018-05-27T01:30:54.867Z,59.40
2018-05-27T01:33:23.126Z,59.70
2018-05-27T01:35:50.585Z,59.60
2018-05-27T01:38:18.059Z,59.60
2018-05-27T01:40:46.306Z,59.70
2018-05-27T01:43:13.785Z,59.70
2018-05-27T01:45:42.033Z,59.70
2018-05-27T01:48:09.522Z,59.60
2018-05-27T01:50:37.765Z,59.70
2018-05-27T01:53:05.238Z,59.60
2018-05-27T01:55:32.710Z,59.70
2018-05-27T01:58:00.950Z,59.80
2018-05-27T02:00:28.456Z,59.80
2018-05-27T02:02:56.698Z,60.90
2018-05-27T02:05:24.167Z,60.10
2018-05-27T02:07:51.638Z,59.90
2018-05-27T02:10:19.870Z,60.10
2018-05-27T02:12:47.370Z,60.10
2018-05-27T02:15:15.606Z,60.10
2018-05-27T02:17:43.094Z,60.10
2018-05-27T02:20:11.323Z,60.60
2018-05-27T02:22:38.810Z,60.60
2018-05-27T02:25:06.315Z,60.60
2018-05-27T02:27:33.803Z,60.60
2018-05-27T02:30:01.278Z,60.80
2018-05-27T02:32:28.769Z,61.00
2018-05-27T02:34:57.032Z,61.50
2018-05-27T02:37:24.506Z,61.40
2018-05-27T02:39:51.987Z,62.10
2018-05-27T02:42:19.465Z,62.80
2018-05-27T02:44:46.935Z,62.90
2018-05-27T02:47:14.415Z,62.70
2018-05-27T02:49:41.896Z,63.00
2018-05-27T02:52:11.046Z,63.10
2018-05-27T02:54:38.536Z,63.00
2018-05-27T02:57:06.782Z,63.10
2018-05-27T02:59:34.310Z,62.90
2018-05-27T03:02:01.784Z,62.50
2018-05-27T03:04:29.251Z,62.30
2018-05-27T03:06:56.754Z,62.30
2018-05-27T03:09:24.985Z,62.40
2018-05-27T03:11:52.461Z,62.30
2018-05-27T03:14:19.947Z,62.50
2018-05-27T03:16:47.456Z,62.70
2018-05-27T03:19:14.919Z,62.90
2018-05-27T03:21:42.382Z,62.90
2018-05-27T03:24:09.871Z,63.00
2018-05-27T03:26:38.095Z,63.30
2018-05-27T03:29:05.582Z,63.30
2018-05-27T03:31:33.062Z,63.60
2018-05-27T03:34:00.576Z,62.90
2018-05-27T03:36:28.053Z,63.40
2018-05-27T03:38:55.570Z,63.50
2018-05-27T03:41:23.041Z,63.40
2018-05-27T03:43:50.521Z,63.40
2018-05-27T03:46:17.998Z,63.30
2018-05-27T03:48:46.255Z,63.40
2018-05-27T03:51:13.746Z,63.30
2018-05-27T03:53:41.211Z,63.20
2018-05-27T03:56:08.690Z,63.40
2018-05-27T03:58:36.201Z,63.50
2018-05-27T04:01:04.431Z,63.90
2018-05-27T04:03:31.945Z,63.80
2018-05-27T04:06:12.134Z,63.80
2018-05-27T04:08:39.603Z,63.80
2018-05-27T04:11:07.093Z,64.00
2018-05-27T04:13:34.628Z,64.10
2018-05-27T04:16:02.122Z,65.20
2018-05-27T04:18:30.351Z,64.00
2018-05-27T04:20:57.854Z,64.00
2018-05-27T04:23:26.125Z,63.80
2018-05-27T04:25:54.358Z,63.90
2018-05-27T04:28:21.874Z,63.70
2018-05-27T04:30:49.875Z,63.80
2018-05-27T04:33:17.344Z,64.10
2018-05-27T04:35:44.809Z,64.10
2018-05-27T04:38:12.276Z,63.90
2018-05-27T04:40:39.758Z,64.30
2018-05-27T04:43:07.997Z,63.80
2018-05-27T04:45:35.477Z,63.70
2018-05-27T04:48:02.965Z,63.80
2018-05-27T04:50:30.452Z,63.50
2018-05-27T04:52:57.970Z,63.70
2018-05-27T04:55:26.210Z,63.20
2018-05-27T04:57:53.703Z,63.00
2018-05-27T05:00:21.939Z,62.90
2018-05-27T05:02:49.409Z,62.80
2018-05-27T05:05:16.891Z,62.90
2018-05-27T05:07:45.133Z,63.10
2018-05-27T05:10:12.620Z,63.00
2018-05-27T05:12:40.875Z,63.10
2018-05-27T05:15:08.343Z,63.00
2018-05-27T05:17:35.824Z,63.10
2018-05-27T05:20:03.322Z,63.20
2018-05-27T05:22:30.827Z,63.10
2018-05-27T05:24:59.201Z,63.20
2018-05-27T05:27:26.726Z,63.10
2018-05-27T05:29:54.199Z,62.70
2018-05-27T05:32:21.674Z,62.30
2018-05-27T05:34:53.077Z,62.70
2018-05-27T05:37:20.541Z,62.50
2018-05-27T05:39:48.014Z,62.60
2018-05-27T05:42:15.529Z,62.70
2018-05-27T05:44:43.009Z,62.60
2018-05-27T05:47:10.486Z,62.40
2018-05-27T05:49:37.948Z,62.40
2018-05-27T05:52:05.450Z,62.60
2018-05-27T05:54:32.910Z,62.60
2018-05-27T05:57:00.417Z,62.40
2018-05-27T05:59:27.887Z,62.50
2018-05-27T06:01:55.369Z,62.10
2018-05-27T06:04:23.613Z,62.10
2018-05-27T06:06:51.126Z,62.10
2018-05-27T06:09:18.590Z,62.30
2018-05-27T06:11:46.083Z,61.80
2018-05-27T06:14:13.574Z,62.00
2018-05-27T06:16:41.802Z,61.60
2018-05-27T06:19:09.287Z,61.60
2018-05-27T06:21:36.749Z,61.70
2018-05-27T06:24:04.999Z,61.60
2018-05-27T06:26:32.623Z,61.50
2018-05-27T06:29:00.106Z,61.50
2018-05-27T06:31:27.657Z,61.30
2018-05-27T06:33:55.157Z,61.30
2018-05-27T06:36:23.540Z,60.80
2018-05-27T06:38:51.787Z,61.00
2018-05-27T06:41:19.288Z,60.90
2018-05-27T06:43:47.523Z,60.10
2018-05-27T06:46:15.034Z,60.10
2018-05-27T06:48:42.506Z,60.10
2018-05-27T06:51:09.986Z,60.30
2018-05-27T06:53:37.471Z,60.20
2018-05-27T06:56:04.952Z,60.00
2018-05-27T06:58:33.193Z,59.40
2018-05-27T07:01:00.654Z,59.40
2018-05-27T07:03:28.124Z,59.50
2018-05-27T07:05:56.370Z,59.80
2018-05-27T07:08:23.853Z,59.30
2018-05-27T07:10:51.336Z,58.10
2018-05-27T07:13:19.570Z,58.10
2018-05-27T07:15:47.047Z,58.00
2018-05-27T07:18:15.290Z,57.80
2018-05-27T07:20:42.762Z,57.70
2018-05-27T07:23:10.299Z,57.30
2018-05-27T07:25:37.785Z,57.50
2018-05-27T07:28:05.301Z,57.60
2018-05-27T07:30:32.762Z,57.90
2018-05-27T07:33:00.246Z,57.20
2018-05-27T07:35:27.718Z,57.10
2018-05-27T07:37:55.190Z,57.20
2018-05-27T07:40:23.422Z,57.00
2018-05-27T07:42:50.890Z,57.00
2018-05-27T07:45:18.426Z,57.10
2018-05-27T07:47:45.892Z,57.00
2018-05-27T07:50:13.356Z,56.90
2018-05-27T07:52:40.839Z,56.70
2018-05-27T07:55:08.326Z,56.70
2018-05-27T07:57:35.821Z,56.70
2018-05-27T08:00:03.300Z,56.70
2018-05-27T08:02:30.784Z,56.70
2018-05-27T08:04:59.031Z,56.20
2018-05-27T08:07:26.546Z,56.20
2018-05-27T08:09:54.025Z,55.80
2018-05-27T08:12:21.496Z,55.60
2018-05-27T08:14:48.966Z,55.70
2018-05-27T08:17:16.447Z,55.00
2018-05-27T08:19:44.700Z,54.90
2018-05-27T08:22:12.174Z,54.80
2018-05-27T08:24:39.726Z,54.80
2018-05-27T08:27:07.224Z,54.90
2018-05-27T08:29:34.690Z,54.80
2018-05-27T08:32:02.198Z,54.30
2018-05-27T08:34:29.684Z,53.70
2018-05-27T08:36:57.150Z,53.80
2018-05-27T08:39:24.630Z,53.40
2018-05-27T08:41:52.867Z,52.60
2018-05-27T08:44:20.343Z,52.50
2018-05-27T08:46:47.842Z,52.30
2018-05-27T08:49:15.347Z,52.30
2018-05-27T08:51:42.876Z,52.30
2018-05-27T08:54:10.351Z,52.10
2018-05-27T08:56:38.603Z,51.30
2018-05-27T08:59:06.084Z,51.20
2018-05-27T09:01:34.320Z,50.90
2018-05-27T09:04:02.570Z,51.50
2018-05-27T09:06:30.054Z,51.50
2018-05-27T09:08:57.597Z,51.60
2018-05-27T09:11:25.782Z,50.80
2018-05-27T09:13:53.283Z,50.80
2018-05-27T09:16:20.827Z,50.50
2018-05-27T09:18:48.324Z,50.50
2018-05-27T09:21:15.790Z,50.50
2018-05-27T09:23:43.268Z,50.60
2018-05-27T09:26:10.786Z,50.60
2018-05-27T09:28:38.255Z,49.60
2018-05-27T09:31:05.866Z,49.70
2018-05-27T09:33:33.374Z,50.00
2018-05-27T09:36:00.852Z,49.50
2018-05-27T09:38:28.341Z,49.70
2018-05-27T09:40:55.838Z,48.90
2018-05-27T09:43:23.374Z,48.90
2018-05-27T09:45:51.638Z,49.40
2018-05-27T09:48:19.100Z,49.40
2018-05-27T09:50:47.345Z,48.40
2018-05-27T09:53:14.844Z,48.30
2018-05-27T09:55:43.077Z,47.30
2018-05-27T09:58:10.951Z,47.30
2018-05-27T10:00:38.434Z,48.10
2018-05-27T10:03:07.101Z,48.10
2018-05-27T10:05:34.597Z,48.10
2018-05-27T10:08:02.075Z,46.90
2018-05-27T10:10:32.843Z,48.00
2018-05-27T10:13:04.452Z,48.60
2018-05-27T10:15:31.985Z,48.60
2018-05-27T10:18:01.717Z,47.30
2018-05-27T10:20:29.313Z,47.10
2018-05-27T10:22:56.770Z,47.50
2018-05-27T10:25:24.249Z,47.40
2018-05-27T10:27:51.757Z,47.50
2018-05-27T10:30:19.215Z,47.50
2018-05-27T10:32:46.710Z,47.00
2018-05-27T10:35:14.163Z,47.20
2018-05-27T10:37:41.641Z,48.50
2018-05-27T10:40:09.154Z,49.70
2018-05-27T10:42:36.662Z,48.70
2018-05-27T10:45:04.918Z,48.30
2018-05-27T10:47:32.418Z,48.30
2018-05-27T10:49:59.884Z,48.00
2018-05-27T10:52:27.342Z,47.90
2018-05-27T10:54:54.817Z,47.90
2018-05-27T10:57:22.289Z,47.10
2018-05-27T10:59:50.558Z,47.50
2018-05-27T11:02:18.014Z,47.40
2018-05-27T11:04:45.498Z,46.20
2018-05-27T11:07:13.026Z,45.80
2018-05-27T11:09:40.534Z,46.60
2018-05-27T11:12:08.847Z,46.30
2018-05-27T11:14:36.329Z,46.20
2018-05-27T11:17:03.789Z,46.30
2018-05-27T11:19:31.274Z,46.20
2018-05-27T11:21:58.754Z,45.70
2018-05-27T11:24:26.224Z,46.30
2018-05-27T11:26:53.702Z,45.50
2018-05-27T11:29:21.178Z,45.70
2018-05-27T11:31:48.657Z,45.20
2018-05-27T11:34:16.138Z,45.30
2018-05-27T11:36:44.440Z,45.00
2018-05-27T11:39:11.928Z,45.00
2018-05-27T11:41:39.405Z,44.20
2018-05-27T11:44:06.898Z,45.10
2018-05-27T11:46:34.391Z,45.20
2018-05-27T11:49:01.870Z,45.40
2018-05-27T11:51:29.338Z,45.30
2018-05-27T11:53:56.827Z,45.00
2018-05-27T11:56:24.284Z,46.00
2018-05-27T11:58:51.753Z,45.40
2018-05-27T12:01:19.218Z,44.40
2018-05-27T12:03:46.757Z,42.90
2018-05-27T12:06:14.222Z,42.10
2018-05-27T12:08:41.713Z,41.50
2018-05-27T12:11:09.174Z,40.70
2018-05-27T12:13:36.707Z,41.10
2018-05-27T12:16:04.193Z,40.20
2018-05-27T12:18:31.747Z,40.40
2018-05-27T12:20:59.211Z,39.60
2018-05-27T12:23:27.831Z,40.00
2018-05-27T12:25:56.070Z,40.80
2018-05-27T12:28:23.595Z,40.70
2018-05-27T12:30:51.106Z,40.70
2018-05-27T12:33:19.331Z,40.30
2018-05-27T12:35:46.861Z,40.20
2018-05-27T12:38:14.342Z,38.80
2018-05-27T12:40:41.817Z,38.80
2018-05-27T12:43:09.270Z,39.40
2018-05-27T12:45:36.794Z,38.50
2018-05-27T12:48:05.084Z,39.40
2018-05-27T12:50:32.577Z,39.40
2018-05-27T12:53:00.062Z,40.00
2018-05-27T12:55:27.561Z,40.20
2018-05-27T12:57:55.043Z,40.20
2018-05-27T13:00:22.505Z,38.60
2018-05-27T13:02:49.975Z,39.70
2018-05-27T13:05:17.459Z,38.70
2018-05-27T13:07:45.681Z,37.90
2018-05-27T13:10:13.158Z,37.70
2018-05-27T13:12:40.616Z,37.20
2018-05-27T13:15:08.102Z,35.60
2018-05-27T13:17:35.561Z,34.60
2018-05-27T13:20:03.806Z,34.80
2018-05-27T13:22:31.324Z,34.70
2018-05-27T13:24:59.179Z,36.00
2018-05-27T13:27:26.674Z,35.40
2018-05-27T13:29:54.156Z,35.10
2018-05-27T13:32:21.630Z,35.20
2018-05-27T13:34:49.967Z,34.20
2018-05-27T13:37:17.433Z,33.40
2018-05-27T13:39:44.896Z,33.50
2018-05-27T13:42:12.366Z,34.50
2018-05-27T13:44:39.850Z,36.50
2018-05-27T13:47:08.094Z,34.40
2018-05-27T13:49:35.606Z,34.30
2018-05-27T13:52:03.536Z,35.30
2018-05-27T13:54:31.055Z,35.30
2018-05-27T13:56:58.534Z,36.60
2018-05-27T13:59:26.036Z,35.40
2018-05-27T14:01:53.509Z,36.10
2018-05-27T14:04:21.008Z,38.20
2018-05-27T14:06:48.464Z,36.80
2018-05-27T14:09:15.948Z,38.20
2018-05-27T14:11:44.197Z,38.80
2018-05-27T14:14:11.707Z,38.70
2018-05-27T14:16:39.195Z,39.60
2018-05-27T14:19:07.464Z,40.00
2018-05-27T14:21:34.938Z,39.40
2018-05-27T14:24:02.416Z,39.10
2018-05-27T14:26:29.878Z,39.60
2018-05-27T14:28:58.109Z,39.90
2018-05-27T14:31:25.611Z,39.20
2018-05-27T14:33:53.850Z,38.20
2018-05-27T14:36:21.310Z,38.20
2018-05-27T14:38:48.838Z,39.40
2018-05-27T14:41:16.278Z,40.00
2018-05-27T14:43:43.782Z,38.70
2018-05-27T14:46:11.284Z,39.70
2018-05-27T14:48:39.515Z,38.30
2018-05-27T14:51:07.004Z,38.20
2018-05-27T14:53:34.461Z,37.90
2018-05-27T14:56:02.716Z,38.10
2018-05-27T14:58:30.182Z,38.00
2018-05-27T15:00:57.668Z,37.30
2018-05-27T15:03:25.971Z,38.20
2018-05-27T15:05:53.421Z,38.10
2018-05-27T15:08:20.912Z,38.70
2018-05-27T15:10:48.430Z,38.80
2018-05-27T15:13:16.353Z,38.40
2018-05-27T15:15:43.813Z,39.10
2018-05-27T15:18:11.290Z,39.40
2018-05-27T15:20:39.536Z,44.70
2018-05-27T15:23:07.005Z,44.60
2018-05-27T15:25:34.476Z,46.70
2018-05-27T15:28:02.720Z,48.50
2018-05-27T15:30:30.243Z,48.50
2018-05-27T15:32:57.696Z,49.20
2018-05-27T15:35:25.176Z,49.70
2018-05-27T15:37:52.665Z,50.60
2018-05-27T15:40:20.979Z,50.30
2018-05-27T15:42:48.464Z,50.40
2018-05-27T15:45:15.935Z,51.30
2018-05-27T15:47:43.409Z,51.70
2018-05-27T15:50:10.909Z,52.50
2018-05-27T15:52:38.382Z,53.20
2018-05-27T15:55:05.862Z,53.50
2018-05-27T15:57:33.338Z,55.80
2018-05-27T16:00:00.813Z,55.00
2018-05-27T16:02:28.302Z,54.40
2018-05-27T16:04:55.819Z,54.20
2018-05-27T16:07:23.287Z,54.90
2018-05-27T16:09:51.542Z,55.00
2018-05-27T16:12:19.091Z,55.00
2018-05-27T16:14:46.568Z,55.30
2018-05-27T16:17:14.033Z,55.60
2018-05-27T16:19:41.502Z,55.70
2018-05-27T16:22:09.730Z,55.40
2018-05-27T16:24:37.223Z,55.30
2018-05-27T16:27:05.463Z,54.80
2018-05-27T16:29:32.949Z,54.80
2018-05-27T16:32:00.438Z,55.60
2018-05-27T16:34:27.939Z,55.00
2018-05-27T16:36:55.425Z,55.00
2018-05-27T16:39:22.882Z,56.40
2018-05-27T16:41:50.364Z,55.40
2018-05-27T16:44:17.830Z,55.40
2018-05-27T16:46:45.335Z,55.00
2018-05-27T16:49:12.825Z,54.30
2018-05-27T16:51:41.210Z,54.10
2018-05-27T16:54:09.476Z,54.80
2018-05-27T16:56:37.765Z,54.80
2018-05-27T16:59:06.039Z,55.10
2018-05-27T17:01:34.310Z,55.10
2018-05-27T17:04:02.559Z,55.50
2018-05-27T17:06:30.045Z,55.30
2018-05-27T17:08:58.320Z,56.00
2018-05-27T17:11:26.565Z,55.80
2018-05-27T17:13:54.046Z,55.80
2018-05-27T17:16:22.297Z,56.30
2018-05-27T17:18:49.766Z,56.20
2018-05-27T17:21:17.232Z,56.00
2018-05-27T17:23:45.478Z,56.10
2018-05-27T17:26:12.972Z,56.00
2018-05-27T17:28:41.982Z,56.00
2018-05-27T17:31:09.542Z,56.00
2018-05-27T17:33:37.021Z,55.90
2018-05-27T17:36:04.534Z,55.70
2018-05-27T17:38:32.056Z,55.20
2018-05-27T17:41:00.352Z,55.40
2018-05-27T17:43:27.813Z,55.30
2018-05-27T17:45:55.330Z,55.60
2018-05-27T17:48:22.813Z,55.20
2018-05-27T17:50:50.279Z,55.80
2018-05-27T17:53:17.772Z,55.70
2018-05-27T17:55:46.073Z,55.80
2018-05-27T17:58:13.566Z,55.80
2018-05-27T18:00:41.049Z,56.90
2018-05-27T18:03:09.296Z,56.90
2018-05-27T18:05:36.804Z,56.80
2018-05-27T18:08:04.280Z,56.70
2018-05-27T18:10:31.801Z,56.20
2018-05-27T18:13:00.059Z,55.30
2018-05-27T18:15:27.539Z,55.30
2018-05-27T18:17:55.821Z,55.50
2018-05-27T18:20:23.838Z,55.40
2018-05-27T18:22:51.360Z,55.30
2018-05-27T18:25:18.869Z,55.80
2018-05-27T18:27:46.391Z,56.50
2018-05-27T18:30:13.900Z,57.00
2018-05-27T18:32:41.363Z,57.50
2018-05-27T18:35:09.598Z,58.80
2018-05-27T18:37:37.089Z,58.80
2018-05-27T18:40:04.557Z,59.40
2018-05-27T18:42:32.782Z,59.20
2018-05-27T18:45:00.290Z,58.50
2018-05-27T18:47:28.573Z,58.60
2018-05-27T18:49:56.889Z,58.30
2018-05-27T18:52:24.438Z,58.30
2018-05-27T18:54:52.004Z,59.00
2018-05-27T18:57:19.498Z,60.10
2018-05-27T18:59:46.978Z,61.30
2018-05-27T19:02:15.253Z,62.30
2018-05-27T19:04:43.486Z,62.70
2018-05-27T19:07:10.969Z,62.60
2018-05-27T19:09:38.460Z,63.20
2018-05-27T19:12:05.925Z,63.70
2018-05-27T19:14:33.408Z,64.00
2018-05-27T19:17:01.003Z,64.30
2018-05-27T19:19:28.674Z,64.60
2018-05-27T19:21:56.186Z,64.90
2018-05-27T19:24:23.715Z,65.30
2018-05-27T19:26:52.025Z,65.30
2018-05-27T19:29:19.509Z,65.50
2018-05-27T19:31:46.977Z,65.70
2018-05-27T19:34:14.450Z,66.10
2018-05-27T19:36:42.695Z,66.70
2018-05-27T19:39:10.276Z,66.60
2018-05-27T19:41:38.518Z,66.80
2018-05-27T19:44:06.047Z,66.70
2018-05-27T19:46:33.554Z,67.00
2018-05-27T19:49:01.092Z,67.00
2018-05-27T19:51:28.675Z,67.00
2018-05-27T19:53:56.138Z,67.00
2018-05-27T19:56:23.601Z,67.00
2018-05-27T19:58:51.864Z,67.00
2018-05-27T20:01:19.325Z,66.90
2018-05-27T20:03:46.827Z,67.00
2018-05-27T20:06:14.585Z,67.00
2018-05-27T20:11:17.035Z,67.60
2018-05-27T20:13:44.503Z,67.50
2018-05-27T20:16:12.778Z,67.90
2018-05-27T20:18:41.033Z,67.80
2018-05-27T20:21:08.718Z,67.80
2018-05-27T20:23:36.229Z,67.80
2018-05-27T20:26:03.709Z,67.90
2018-05-27T20:28:31.219Z,68.20
2018-05-27T20:30:58.689Z,68.10
2018-05-27T20:33:26.189Z,68.30
2018-05-27T20:35:53.658Z,68.50
2018-05-27T20:38:22.057Z,68.60
2018-05-27T20:40:49.610Z,68.50
2018-05-27T20:43:17.986Z,68.80
2018-05-27T20:45:46.285Z,68.90
2018-05-27T20:48:13.781Z,68.80
2018-05-27T20:50:41.240Z,68.90
2018-05-27T20:53:08.726Z,69.00
2018-05-27T20:55:36.950Z,68.80
2018-05-27T20:58:04.433Z,68.70
2018-05-27T21:00:31.897Z,68.80
2018-05-27T21:02:59.366Z,68.70
2018-05-27T21:05:27.717Z,69.70
2018-05-27T21:07:55.191Z,69.00
2018-05-27T21:10:23.257Z,69.20
2018-05-27T21:12:50.741Z,69.40
2018-05-27T21:15:19.019Z,69.50
2018-05-27T21:17:47.255Z,69.60
2018-05-27T21:20:14.753Z,69.60
2018-05-27T21:22:42.989Z,69.70
2018-05-27T21:25:10.484Z,69.60
2018-05-27T21:27:38.727Z,70.00
2018-05-27T21:30:06.216Z,69.80
2018-05-27T21:32:34.447Z,69.80
2018-05-27T21:35:01.940Z,69.80
2018-05-27T21:37:29.522Z,69.80
2018-05-27T21:39:57.653Z,69.60
2018-05-27T21:42:25.156Z,69.60
2018-05-27T21:44:52.629Z,69.50
2018-05-27T21:47:20.100Z,69.60
2018-05-27T21:49:47.595Z,70.10
2018-05-27T21:52:15.073Z,70.20
2018-05-27T21:54:43.327Z,70.80
2018-05-27T21:57:10.803Z,70.70
2018-05-27T21:59:39.052Z,71.20
2018-05-27T22:02:06.549Z,71.10
2018-05-27T22:04:34.803Z,71.40
2018-05-27T22:07:02.274Z,71.40
2018-05-27T22:09:30.651Z,72.00
2018-05-27T22:11:58.930Z,72.00
2018-05-27T22:14:27.163Z,72.10
2018-05-27T22:16:54.641Z,72.00
2018-05-27T22:19:22.098Z,72.20
2018-05-27T22:21:49.615Z,72.00
2018-05-27T22:24:17.087Z,72.10
2018-05-27T22:26:44.563Z,72.10
2018-05-27T22:29:12.039Z,71.70
2018-05-27T22:31:40.290Z,71.30
2018-05-27T22:34:07.763Z,71.20
2018-05-27T22:36:36.069Z,70.90
2018-05-27T22:39:03.572Z,71.60
2018-05-27T22:41:31.071Z,71.80
2018-05-27T22:43:59.319Z,71.80
2018-05-27T22:46:26.785Z,71.80
2018-05-27T22:48:54.289Z,71.70
2018-05-27T22:51:21.790Z,71.70
2018-05-27T22:53:49.266Z,72.20
2018-05-27T22:56:17.501Z,72.60
2018-05-27T22:58:44.994Z,72.60
2018-05-27T23:01:12.498Z,72.70
2018-05-27T23:03:39.989Z,72.70
2018-05-27T23:06:08.044Z,72.70
2018-05-27T23:08:35.522Z,72.90
2018-05-27T23:11:03.016Z,73.00
2018-05-27T23:13:31.249Z,73.00
2018-05-27T23:15:58.736Z,73.00
2018-05-27T23:18:27.364Z,72.70
2018-05-27T23:20:54.846Z,72.70
2018-05-27T23:23:22.312Z,73.00
2018-05-27T23:25:49.794Z,73.20
2018-05-27T23:28:18.042Z,73.10
2018-05-27T23:30:45.560Z,72.90
2018-05-27T23:33:13.065Z,72.60
2018-05-27T23:35:40.556Z,72.90
2018-05-27T23:38:08.027Z,73.20
2018-05-27T23:40:35.521Z,72.90
2018-05-27T23:43:03.050Z,72.80
2018-05-27T23:45:30.531Z,72.80
2018-05-27T23:47:58.018Z,73.00
2018-05-27T23:50:25.483Z,73.00
2018-05-27T23:52:53.702Z,73.20
2018-05-27T23:55:21.200Z,72.90
2018-05-27T23:57:48.686Z,73.30
